sensor_id;sensor_type;location;lat;lon;timestamp;pressure;altitude;pressure_sealevel;temperature;humidity
49461;BME280;35355;49.198;-0.368;2024-01-25T00:00:23;102555.16;;;12.15;77.85
49461;BME280;35355;49.198;-0.368;2024-01-25T00:02:48;102556.00;;;12.16;77.71
49461;BME280;35355;49.198;-0.368;2024-01-25T00:05:14;102547.78;;;12.16;77.64
49461;BME280;35355;49.198;-0.368;2024-01-25T00:07:49;102550.53;;;12.16;77.57
49461;BME280;35355;49.198;-0.368;2024-01-25T00:10:16;102537.88;;;12.15;77.79
49461;BME280;35355;49.198;-0.368;2024-01-25T00:12:41;102543.38;;;12.15;78.06
49461;BME280;35355;49.198;-0.368;2024-01-25T00:15:08;102539.56;;;12.16;77.79
49461;BME280;35355;49.198;-0.368;2024-01-25T00:17:33;102535.16;;;12.15;78.17
49461;BME280;35355;49.198;-0.368;2024-01-25T00:19:59;102542.31;;;12.16;78.01
49461;BME280;35355;49.198;-0.368;2024-01-25T00:22:24;102540.41;;;12.16;78.00
49461;BME280;35355;49.198;-0.368;2024-01-25T00:24:50;102534.09;;;12.16;77.82
49461;BME280;35355;49.198;-0.368;2024-01-25T00:27:15;102534.09;;;12.16;77.87
49461;BME280;35355;49.198;-0.368;2024-01-25T00:29:41;102525.06;;;12.15;77.98
49461;BME280;35355;49.198;-0.368;2024-01-25T00:32:06;102528.63;;;12.16;77.85
49461;BME280;35355;49.198;-0.368;2024-01-25T00:34:32;102524.84;;;12.17;78.15
49461;BME280;35355;49.198;-0.368;2024-01-25T00:36:57;102521.00;;;12.18;78.34
49461;BME280;35355;49.198;-0.368;2024-01-25T00:39:23;102518.28;;;12.18;78.06
49461;BME280;35355;49.198;-0.368;2024-01-25T00:41:51;102517.22;;;12.19;77.86
49461;BME280;35355;49.198;-0.368;2024-01-25T00:44:17;102511.75;;;12.19;78.01
49461;BME280;35355;49.198;-0.368;2024-01-25T00:46:43;102509.00;;;12.19;78.00
49461;BME280;35355;49.198;-0.368;2024-01-25T00:49:08;102510.91;;;12.18;78.01
49461;BME280;35355;49.198;-0.368;2024-01-25T00:51:35;102500.19;;;12.17;78.07
49461;BME280;35355;49.198;-0.368;2024-01-25T00:54:01;102507.94;;;12.20;78.25
49461;BME280;35355;49.198;-0.368;2024-01-25T00:56:27;102508.78;;;12.20;78.31
49461;BME280;35355;49.198;-0.368;2024-01-25T00:58:53;102504.13;;;12.21;78.36
49461;BME280;35355;49.198;-0.368;2024-01-25T01:01:21;102504.13;;;12.21;77.98
49461;BME280;35355;49.198;-0.368;2024-01-25T01:03:46;102508.78;;;12.20;78.52
49461;BME280;35355;49.198;-0.368;2024-01-25T01:06:18;102513.41;;;12.20;78.25
49461;BME280;35355;49.198;-0.368;2024-01-25T01:08:44;102505.22;;;12.20;78.03
49461;BME280;35355;49.198;-0.368;2024-01-25T01:11:09;102507.09;;;12.19;78.40
49461;BME280;35355;49.198;-0.368;2024-01-25T01:13:34;102507.94;;;12.20;78.51
49461;BME280;35355;49.198;-0.368;2024-01-25T01:16:00;102504.59;;;12.18;78.35
49461;BME280;35355;49.198;-0.368;2024-01-25T01:18:25;102496.38;;;12.18;78.17
49461;BME280;35355;49.198;-0.368;2024-01-25T01:20:50;102496.38;;;12.18;78.10
49461;BME280;35355;49.198;-0.368;2024-01-25T01:23:16;102493.63;;;12.18;78.52
49461;BME280;35355;49.198;-0.368;2024-01-25T01:25:41;102488.03;;;12.13;78.02
49461;BME280;35355;49.198;-0.368;2024-01-25T01:28:06;102497.44;;;12.17;78.48
49461;BME280;35355;49.198;-0.368;2024-01-25T01:30:32;102497.44;;;12.17;78.30
49461;BME280;35355;49.198;-0.368;2024-01-25T01:32:57;102490.06;;;12.17;78.66
49461;BME280;35355;49.198;-0.368;2024-01-25T01:35:22;102494.47;;;12.18;78.35
49461;BME280;35355;49.198;-0.368;2024-01-25T01:37:47;102496.13;;;12.19;78.55
49461;BME280;35355;49.198;-0.368;2024-01-25T01:40:13;102491.53;;;12.20;78.57
49461;BME280;35355;49.198;-0.368;2024-01-25T01:42:38;102493.41;;;12.19;78.89
49461;BME280;35355;49.198;-0.368;2024-01-25T01:45:05;102495.72;;;12.22;78.82
49461;BME280;35355;49.198;-0.368;2024-01-25T01:47:30;102491.88;;;12.23;78.62
49461;BME280;35355;49.198;-0.368;2024-01-25T01:49:56;102494.63;;;12.23;78.67
49461;BME280;35355;49.198;-0.368;2024-01-25T01:52:21;102497.13;;;12.25;78.67
49461;BME280;35355;49.198;-0.368;2024-01-25T01:54:47;102493.56;;;12.24;79.05
49461;BME280;35355;49.198;-0.368;2024-01-25T01:57:13;102496.06;;;12.26;78.75
49461;BME280;35355;49.198;-0.368;2024-01-25T01:59:38;102491.88;;;12.23;78.90
49461;BME280;35355;49.198;-0.368;2024-01-25T02:02:04;102497.97;;;12.25;79.09
49461;BME280;35355;49.198;-0.368;2024-01-25T02:04:29;102502.38;;;12.26;78.72
49461;BME280;35355;49.198;-0.368;2024-01-25T02:06:55;102501.53;;;12.26;78.87
49461;BME280;35355;49.198;-0.368;2024-01-25T02:09:21;102502.38;;;12.26;78.81
49461;BME280;35355;49.198;-0.368;2024-01-25T02:11:47;102501.53;;;12.26;78.78
49461;BME280;35355;49.198;-0.368;2024-01-25T02:14:12;102503.22;;;12.27;79.35
49461;BME280;35355;49.198;-0.368;2024-01-25T02:16:38;102499.63;;;12.26;79.36
49461;BME280;35355;49.198;-0.368;2024-01-25T02:19:03;102497.75;;;12.27;79.23
49461;BME280;35355;49.198;-0.368;2024-01-25T02:21:29;102496.91;;;12.26;79.03
49461;BME280;35355;49.198;-0.368;2024-01-25T02:23:54;102494.78;;;12.28;79.46
49461;BME280;35355;49.198;-0.368;2024-01-25T02:26:20;102492.88;;;12.29;79.38
49461;BME280;35355;49.198;-0.368;2024-01-25T02:28:45;102487.97;;;12.31;79.31
49461;BME280;35355;49.198;-0.368;2024-01-25T02:31:10;102494.09;;;12.33;79.11
49461;BME280;35355;49.198;-0.368;2024-01-25T02:33:36;102489.19;;;12.35;79.67
49461;BME280;35355;49.198;-0.368;2024-01-25T02:36:01;102490.66;;;12.38;79.48
49461;BME280;35355;49.198;-0.368;2024-01-25T02:38:26;102488.75;;;12.38;79.32
49461;BME280;35355;49.198;-0.368;2024-01-25T02:40:52;102486.63;;;12.40;79.69
49461;BME280;35355;49.198;-0.368;2024-01-25T02:43:19;102486.63;;;12.40;79.51
49461;BME280;35355;49.198;-0.368;2024-01-25T02:45:44;102482.19;;;12.39;79.44
49461;BME280;35355;49.198;-0.368;2024-01-25T02:48:10;102485.75;;;12.40;79.52
49461;BME280;35355;49.198;-0.368;2024-01-25T02:50:35;102477.31;;;12.41;79.45
49461;BME280;35355;49.198;-0.368;2024-01-25T02:53:00;102471.84;;;12.41;79.44
49461;BME280;35355;49.198;-0.368;2024-01-25T02:55:26;102465.53;;;12.41;79.88
49461;BME280;35355;49.198;-0.368;2024-01-25T02:57:51;102471.59;;;12.43;79.37
49461;BME280;35355;49.198;-0.368;2024-01-25T03:00:16;102469.72;;;12.43;79.63
49461;BME280;35355;49.198;-0.368;2024-01-25T03:02:42;102465.06;;;12.44;79.53
49461;BME280;35355;49.198;-0.368;2024-01-25T03:05:07;102458.78;;;12.43;79.34
49461;BME280;35355;49.198;-0.368;2024-01-25T03:07:33;102457.09;;;12.42;79.37
49461;BME280;35355;49.198;-0.368;2024-01-25T03:09:58;102450.78;;;12.42;79.70
49461;BME280;35355;49.198;-0.368;2024-01-25T03:12:23;102451.84;;;12.41;79.65
49461;BME280;35355;49.198;-0.368;2024-01-25T03:14:49;102443.63;;;12.41;79.56
49461;BME280;35355;49.198;-0.368;2024-01-25T03:17:14;102441.72;;;12.41;79.60
49461;BME280;35355;49.198;-0.368;2024-01-25T03:19:39;102437.34;;;12.40;79.88
49461;BME280;35355;49.198;-0.368;2024-01-25T03:22:05;102432.91;;;12.39;79.58
49461;BME280;35355;49.198;-0.368;2024-01-25T03:24:30;102432.31;;;12.37;79.28
49461;BME280;35355;49.198;-0.368;2024-01-25T03:26:55;102425.63;;;12.33;79.68
49461;BME280;35355;49.198;-0.368;2024-01-25T03:29:21;102426.69;;;12.32;79.42
49461;BME280;35355;49.198;-0.368;2024-01-25T03:31:46;102420.63;;;12.30;79.65
49461;BME280;35355;49.198;-0.368;2024-01-25T03:34:11;102419.19;;;12.27;79.57
49461;BME280;35355;49.198;-0.368;2024-01-25T03:36:37;102419.41;;;12.26;79.70
49461;BME280;35355;49.198;-0.368;2024-01-25T03:39:04;102420.22;;;12.26;79.56
49461;BME280;35355;49.198;-0.368;2024-01-25T03:41:30;102417.50;;;12.26;79.53
49461;BME280;35355;49.198;-0.368;2024-01-25T03:43:57;102417.25;;;12.28;79.97
49461;BME280;35355;49.198;-0.368;2024-01-25T03:46:22;102406.31;;;12.28;79.60
49461;BME280;35355;49.198;-0.368;2024-01-25T03:48:48;102406.53;;;12.26;79.81
49461;BME280;35355;49.198;-0.368;2024-01-25T03:51:13;102403.56;;;12.28;79.79
49461;BME280;35355;49.198;-0.368;2024-01-25T03:53:38;102398.34;;;12.26;79.63
49461;BME280;35355;49.198;-0.368;2024-01-25T03:56:10;102409.28;;;12.26;79.40
49461;BME280;35355;49.198;-0.368;2024-01-25T03:58:36;102399.19;;;12.27;79.78
49461;BME280;35355;49.198;-0.368;2024-01-25T04:01:01;102397.50;;;12.26;79.74
49461;BME280;35355;49.198;-0.368;2024-01-25T04:03:26;102410.13;;;12.27;79.51
49461;BME280;35355;49.198;-0.368;2024-01-25T04:05:52;102404.03;;;12.25;79.82
49461;BME280;35355;49.198;-0.368;2024-01-25T04:08:17;102395.81;;;12.25;79.63
49461;BME280;35355;49.198;-0.368;2024-01-25T04:10:42;102393.31;;;12.23;80.20
49461;BME280;35355;49.198;-0.368;2024-01-25T04:13:07;102396.69;;;12.25;79.68
49461;BME280;35355;49.198;-0.368;2024-01-25T04:15:33;102390.34;;;12.25;79.93
49461;BME280;35355;49.198;-0.368;2024-01-25T04:17:58;102398.56;;;12.25;79.26
49461;BME280;35355;49.198;-0.368;2024-01-25T04:20:23;102390.34;;;12.25;79.89
49461;BME280;35355;49.198;-0.368;2024-01-25T04:22:49;102390.34;;;12.25;79.93
49461;BME280;35355;49.198;-0.368;2024-01-25T04:25:15;102387.03;;;12.23;79.89
49461;BME280;35355;49.198;-0.368;2024-01-25T04:27:40;102391.88;;;12.21;79.76
49461;BME280;35355;49.198;-0.368;2024-01-25T04:30:07;102387.50;;;12.20;79.81
49461;BME280;35355;49.198;-0.368;2024-01-25T04:32:32;102385.22;;;12.17;79.58
49461;BME280;35355;49.198;-0.368;2024-01-25T04:34:58;102397.22;;;12.16;79.43
49461;BME280;35355;49.198;-0.368;2024-01-25T04:37:23;102387.56;;;12.13;79.66
49461;BME280;35355;49.198;-0.368;2024-01-25T04:39:48;102388.03;;;12.10;79.43
49461;BME280;35355;49.198;-0.368;2024-01-25T04:42:14;102389.09;;;12.09;79.27
49461;BME280;35355;49.198;-0.368;2024-01-25T04:44:39;102383.84;;;12.07;79.35
49461;BME280;35355;49.198;-0.368;2024-01-25T04:47:05;102390.66;;;12.05;79.53
49461;BME280;35355;49.198;-0.368;2024-01-25T04:49:30;102386.22;;;12.04;79.66
49461;BME280;35355;49.198;-0.368;2024-01-25T04:51:55;102398.22;;;12.03;79.45
49461;BME280;35355;49.198;-0.368;2024-01-25T04:54:21;102392.16;;;12.01;79.23
49461;BME280;35355;49.198;-0.368;2024-01-25T04:56:46;102394.28;;;11.99;79.33
49461;BME280;35355;49.198;-0.368;2024-01-25T04:59:11;102390.13;;;11.96;79.22
49461;BME280;35355;49.198;-0.368;2024-01-25T05:01:37;102387.84;;;11.93;79.33
49461;BME280;35355;49.198;-0.368;2024-01-25T05:04:03;102379.91;;;11.85;79.12
49461;BME280;35355;49.198;-0.368;2024-01-25T05:06:29;102385.75;;;11.88;79.18
49461;BME280;35355;49.198;-0.368;2024-01-25T05:08:54;102380.75;;;11.85;79.42
49461;BME280;35355;49.198;-0.368;2024-01-25T05:11:19;102384.34;;;11.86;79.23
49461;BME280;35355;49.198;-0.368;2024-01-25T05:13:44;102380.75;;;11.85;79.08
49461;BME280;35355;49.198;-0.368;2024-01-25T05:16:11;102374.44;;;11.85;79.31
49461;BME280;35355;49.198;-0.368;2024-01-25T05:18:36;102376.13;;;11.86;79.13
49461;BME280;35355;49.198;-0.368;2024-01-25T05:21:02;102375.88;;;11.87;79.05
49461;BME280;35355;49.198;-0.368;2024-01-25T05:23:27;102375.03;;;11.87;79.06
49461;BME280;35355;49.198;-0.368;2024-01-25T05:25:52;102377.78;;;11.87;79.02
49461;BME280;35355;49.198;-0.368;2024-01-25T05:28:18;102368.97;;;11.85;79.26
49461;BME280;35355;49.198;-0.368;2024-01-25T05:30:43;102360.75;;;11.85;79.17
49461;BME280;35355;49.198;-0.368;2024-01-25T05:33:08;102368.97;;;11.85;79.38
49461;BME280;35355;49.198;-0.368;2024-01-25T05:35:34;102371.69;;;11.85;79.03
49461;BME280;35355;49.198;-0.368;2024-01-25T05:38:00;102365.41;;;11.84;79.07
49461;BME280;35355;49.198;-0.368;2024-01-25T05:40:25;102368.75;;;11.86;79.28
49461;BME280;35355;49.198;-0.368;2024-01-25T05:42:51;102374.81;;;11.88;78.99
49461;BME280;35355;49.198;-0.368;2024-01-25T05:45:16;102375.66;;;11.89;78.95
49461;BME280;35355;49.198;-0.368;2024-01-25T05:47:45;102380.28;;;11.88;79.39
49461;BME280;35355;49.198;-0.368;2024-01-25T05:50:10;102381.13;;;11.89;78.84
49461;BME280;35355;49.198;-0.368;2024-01-25T05:52:36;102381.59;;;11.86;78.88
49461;BME280;35355;49.198;-0.368;2024-01-25T05:55:03;102384.34;;;11.86;78.87
49461;BME280;35355;49.198;-0.368;2024-01-25T05:57:28;102380.75;;;11.85;79.07
49461;BME280;35355;49.198;-0.368;2024-01-25T05:59:54;102382.66;;;11.85;78.67
49461;BME280;35355;49.198;-0.368;2024-01-25T06:02:19;102381.59;;;11.86;79.04
49461;BME280;35355;49.198;-0.368;2024-01-25T06:04:45;102387.06;;;11.86;78.89
49461;BME280;35355;49.198;-0.368;2024-01-25T06:07:10;102378.00;;;11.85;79.05
49461;BME280;35355;49.198;-0.368;2024-01-25T06:09:35;102378.84;;;11.86;79.20
49461;BME280;35355;49.198;-0.368;2024-01-25T06:12:01;102385.97;;;11.87;78.80
49461;BME280;35355;49.198;-0.368;2024-01-25T06:14:26;102389.56;;;11.87;78.79
49461;BME280;35355;49.198;-0.368;2024-01-25T06:16:51;102395.88;;;11.88;78.88
49461;BME280;35355;49.198;-0.368;2024-01-25T06:19:17;102395.63;;;11.89;78.87
49461;BME280;35355;49.198;-0.368;2024-01-25T06:21:42;102399.22;;;11.90;78.94
49461;BME280;35355;49.198;-0.368;2024-01-25T06:24:07;102395.41;;;11.91;78.52
49461;BME280;35355;49.198;-0.368;2024-01-25T06:26:33;102399.22;;;11.90;78.65
49461;BME280;35355;49.198;-0.368;2024-01-25T06:28:58;102393.75;;;11.90;78.78
49461;BME280;35355;49.198;-0.368;2024-01-25T06:31:25;102397.56;;;11.89;78.92
49461;BME280;35355;49.198;-0.368;2024-01-25T06:33:50;102405.53;;;11.90;79.05
49461;BME280;35355;49.198;-0.368;2024-01-25T06:36:20;102400.88;;;11.91;79.20
49461;BME280;35355;49.198;-0.368;2024-01-25T06:38:46;102394.59;;;11.90;78.84
49461;BME280;35355;49.198;-0.368;2024-01-25T06:41:11;102398.13;;;11.91;78.92
49461;BME280;35355;49.198;-0.368;2024-01-25T06:43:37;102395.19;;;11.92;78.78
49461;BME280;35355;49.198;-0.368;2024-01-25T06:46:02;102400.44;;;11.94;78.88
49461;BME280;35355;49.198;-0.368;2024-01-25T06:48:27;102393.09;;;11.95;78.67
49461;BME280;35355;49.198;-0.368;2024-01-25T06:50:53;102388.44;;;11.95;78.64
49461;BME280;35355;49.198;-0.368;2024-01-25T06:53:19;102390.94;;;11.97;79.19
49461;BME280;35355;49.198;-0.368;2024-01-25T06:55:44;102390.13;;;11.96;78.77
49461;BME280;35355;49.198;-0.368;2024-01-25T06:58:10;102394.50;;;11.97;78.71
49461;BME280;35355;49.198;-0.368;2024-01-25T07:00:35;102397.88;;;11.99;78.95
49461;BME280;35355;49.198;-0.368;2024-01-25T07:03:00;102393.44;;;11.98;78.83
49461;BME280;35355;49.198;-0.368;2024-01-25T07:05:26;102387.75;;;12.00;78.76
49461;BME280;35355;49.198;-0.368;2024-01-25T07:07:52;102368.34;;;12.01;78.78
49461;BME280;35355;49.198;-0.368;2024-01-25T07:10:17;102362.06;;;12.01;78.93
49461;BME280;35355;49.198;-0.368;2024-01-25T07:12:42;102362.88;;;12.01;78.58
49461;BME280;35355;49.198;-0.368;2024-01-25T07:15:08;102368.34;;;12.01;78.89
49461;BME280;35355;49.198;-0.368;2024-01-25T07:17:33;102382.91;;;12.02;78.60
49461;BME280;35355;49.198;-0.368;2024-01-25T07:19:59;102378.25;;;12.02;79.02
49461;BME280;35355;49.198;-0.368;2024-01-25T07:22:24;102385.41;;;12.03;78.65
49461;BME280;35355;49.198;-0.368;2024-01-25T07:24:49;102381.44;;;11.99;78.59
49461;BME280;35355;49.198;-0.368;2024-01-25T07:27:15;102381.34;;;12.06;78.61
49461;BME280;35355;49.198;-0.368;2024-01-25T07:29:43;102389.31;;;12.07;78.77
49461;BME280;35355;49.198;-0.368;2024-01-25T07:32:09;102391.00;;;12.08;78.63
49461;BME280;35355;49.198;-0.368;2024-01-25T07:34:34;102370.16;;;12.07;78.92
49461;BME280;35355;49.198;-0.368;2024-01-25T07:37:00;102382.78;;;12.08;78.66
49461;BME280;35355;49.198;-0.368;2024-01-25T07:39:25;102388.25;;;12.08;78.31
49461;BME280;35355;49.198;-0.368;2024-01-25T07:41:51;102382.78;;;12.08;78.76
49461;BME280;35355;49.198;-0.368;2024-01-25T07:44:16;102382.78;;;12.08;78.69
49461;BME280;35355;49.198;-0.368;2024-01-25T07:46:43;102381.13;;;12.07;78.53
49461;BME280;35355;49.198;-0.368;2024-01-25T07:49:08;102370.03;;;12.02;78.51
49461;BME280;35355;49.198;-0.368;2024-01-25T07:51:33;102366.38;;;12.08;78.78
49461;BME280;35355;49.198;-0.368;2024-01-25T07:53:59;102351.00;;;12.07;78.51
49461;BME280;35355;49.198;-0.368;2024-01-25T07:56:24;102341.97;;;12.07;78.87
49461;BME280;35355;49.198;-0.368;2024-01-25T07:58:49;102323.75;;;12.01;78.80
49461;BME280;35355;49.198;-0.368;2024-01-25T08:01:18;102322.22;;;12.05;78.40
49461;BME280;35355;49.198;-0.368;2024-01-25T08:03:44;102324.72;;;12.06;78.52
49461;BME280;35355;49.198;-0.368;2024-01-25T08:06:09;102322.56;;;12.08;79.08
49461;BME280;35355;49.198;-0.368;2024-01-25T08:08:35;102344.25;;;12.10;78.85
49461;BME280;35355;49.198;-0.368;2024-01-25T08:11:00;102345.06;;;12.10;78.99
49461;BME280;35355;49.198;-0.368;2024-01-25T08:13:25;102352.22;;;12.11;78.63
49461;BME280;35355;49.198;-0.368;2024-01-25T08:15:53;102363.16;;;12.11;78.98
49461;BME280;35355;49.198;-0.368;2024-01-25T08:18:19;102353.06;;;12.12;78.90
49461;BME280;35355;49.198;-0.368;2024-01-25T08:20:44;102359.38;;;12.13;78.47
49461;BME280;35355;49.198;-0.368;2024-01-25T08:23:09;102367.59;;;12.13;78.67
49461;BME280;35355;49.198;-0.368;2024-01-25T08:25:35;102371.16;;;12.13;78.97
49461;BME280;35355;49.198;-0.368;2024-01-25T08:28:00;102377.25;;;12.15;79.04
49461;BME280;35355;49.198;-0.368;2024-01-25T08:30:26;102378.66;;;12.18;78.70
49461;BME280;35355;49.198;-0.368;2024-01-25T08:32:51;102367.69;;;12.18;78.88
49461;BME280;35355;49.198;-0.368;2024-01-25T08:35:17;102364.97;;;12.18;78.71
49461;BME280;35355;49.198;-0.368;2024-01-25T08:37:42;102372.13;;;12.19;78.61
49461;BME280;35355;49.198;-0.368;2024-01-25T08:40:08;102370.22;;;12.19;78.76
49461;BME280;35355;49.198;-0.368;2024-01-25T08:42:35;102369.97;;;12.21;78.85
49461;BME280;35355;49.198;-0.368;2024-01-25T08:45:00;102365.13;;;12.23;78.47
49461;BME280;35355;49.198;-0.368;2024-01-25T08:47:25;102364.06;;;12.24;78.78
49461;BME280;35355;49.198;-0.368;2024-01-25T08:49:51;102366.34;;;12.27;78.56
49461;BME280;35355;49.198;-0.368;2024-01-25T08:52:16;102369.66;;;12.29;78.55
49461;BME280;35355;49.198;-0.368;2024-01-25T08:54:42;102382.28;;;12.30;78.81
49461;BME280;35355;49.198;-0.368;2024-01-25T08:57:07;102374.66;;;12.32;78.74
49461;BME280;35355;49.198;-0.368;2024-01-25T08:59:34;102378.03;;;12.34;78.65
49461;BME280;35355;49.198;-0.368;2024-01-25T09:02:00;102372.06;;;12.37;78.87
49461;BME280;35355;49.198;-0.368;2024-01-25T09:04:25;102357.75;;;12.35;78.72
49461;BME280;35355;49.198;-0.368;2024-01-25T09:06:51;102350.53;;;12.41;78.74
49461;BME280;35355;49.198;-0.368;2024-01-25T09:09:16;102347.56;;;12.42;78.98
49461;BME280;35355;49.198;-0.368;2024-01-25T09:11:41;102337.41;;;12.43;78.64
49461;BME280;35355;49.198;-0.368;2024-01-25T09:14:07;102334.44;;;12.44;78.35
49461;BME280;35355;49.198;-0.368;2024-01-25T09:16:32;102341.59;;;12.45;78.57
49461;BME280;35355;49.198;-0.368;2024-01-25T09:18:58;102329.59;;;12.46;78.64
49461;BME280;35355;49.198;-0.368;2024-01-25T09:21:23;102335.66;;;12.49;78.61
49461;BME280;35355;49.198;-0.368;2024-01-25T09:23:48;102342.81;;;12.50;78.68
49461;BME280;35355;49.198;-0.368;2024-01-25T09:26:13;102341.50;;;12.52;78.40
49461;BME280;35355;49.198;-0.368;2024-01-25T09:28:39;102348.63;;;12.53;78.31
49461;BME280;35355;49.198;-0.368;2024-01-25T09:31:04;102344.00;;;12.54;78.23
49461;BME280;35355;49.198;-0.368;2024-01-25T09:33:30;102344.00;;;12.54;78.37
49461;BME280;35355;49.198;-0.368;2024-01-25T09:35:55;102354.97;;;12.54;78.17
49461;BME280;35355;49.198;-0.368;2024-01-25T09:38:21;102365.06;;;12.53;78.20
49461;BME280;35355;49.198;-0.368;2024-01-25T09:40:47;102357.09;;;12.52;78.15
49461;BME280;35355;49.198;-0.368;2024-01-25T09:43:14;102357.31;;;12.50;78.16
49461;BME280;35355;49.198;-0.368;2024-01-25T09:45:40;102346.75;;;12.54;78.44
49461;BME280;35355;49.198;-0.368;2024-01-25T09:48:07;102343.78;;;12.55;78.43
49461;BME280;35355;49.198;-0.368;2024-01-25T09:50:32;102343.06;;;12.60;78.41
49461;BME280;35355;49.198;-0.368;2024-01-25T09:52:59;102336.28;;;12.62;78.25
49461;BME280;35355;49.198;-0.368;2024-01-25T09:55:25;102348.66;;;12.65;78.26
49461;BME280;35355;49.198;-0.368;2024-01-25T09:57:54;102349.28;;;12.67;78.01
49461;BME280;35355;49.198;-0.368;2024-01-25T10:00:21;102348.22;;;12.68;78.11
49461;BME280;35355;49.198;-0.368;2024-01-25T10:02:49;102364.41;;;12.70;77.75
49461;BME280;35355;49.198;-0.368;2024-01-25T10:05:18;102367.16;;;12.70;78.10
49461;BME280;35355;49.198;-0.368;2024-01-25T10:07:45;102374.50;;;12.69;78.21
49461;BME280;35355;49.198;-0.368;2024-01-25T10:10:12;102375.59;;;12.68;77.92
49461;BME280;35355;49.198;-0.368;2024-01-25T10:12:39;102365.69;;;12.67;77.70
49461;BME280;35355;49.198;-0.368;2024-01-25T10:15:06;102368.91;;;12.64;77.82
49461;BME280;35355;49.198;-0.368;2024-01-25T10:17:32;102356.53;;;12.61;77.85
49461;BME280;35355;49.198;-0.368;2024-01-25T10:19:57;102359.03;;;12.63;78.02
49461;BME280;35355;49.198;-0.368;2024-01-25T10:22:24;102358.44;;;12.61;78.04
49461;BME280;35355;49.198;-0.368;2024-01-25T10:24:49;102357.81;;;12.59;77.88
49461;BME280;35355;49.198;-0.368;2024-01-25T10:27:21;102354.50;;;12.57;78.09
49461;BME280;35355;49.198;-0.368;2024-01-25T10:29:46;102359.97;;;12.57;78.32
49461;BME280;35355;49.198;-0.368;2024-01-25T10:32:12;102353.44;;;12.58;78.47
49461;BME280;35355;49.198;-0.368;2024-01-25T10:34:38;102354.00;;;12.60;78.49
49461;BME280;35355;49.198;-0.368;2024-01-25T10:37:05;102352.09;;;12.60;78.44
49461;BME280;35355;49.198;-0.368;2024-01-25T10:39:32;102346.38;;;12.62;78.48
49461;BME280;35355;49.198;-0.368;2024-01-25T10:41:59;102345.31;;;12.63;78.24
49461;BME280;35355;49.198;-0.368;2024-01-25T10:44:25;102343.16;;;12.65;78.32
49461;BME280;35355;49.198;-0.368;2024-01-25T10:46:50;102332.84;;;12.67;78.26
49461;BME280;35355;49.198;-0.368;2024-01-25T10:49:17;102336.16;;;12.69;78.64
49461;BME280;35355;49.198;-0.368;2024-01-25T10:51:44;102329.84;;;12.69;78.60
49461;BME280;35355;49.198;-0.368;2024-01-25T10:54:13;102331.28;;;12.71;78.62
49461;BME280;35355;49.198;-0.368;2024-01-25T10:56:42;102317.13;;;12.74;78.52
49461;BME280;35355;49.198;-0.368;2024-01-25T10:59:08;102313.28;;;12.75;78.39
49461;BME280;35355;49.198;-0.368;2024-01-25T11:01:34;102313.91;;;12.77;78.75
49461;BME280;35355;49.198;-0.368;2024-01-25T11:03:59;102307.94;;;12.80;78.53
49461;BME280;35355;49.198;-0.368;2024-01-25T11:06:27;102297.47;;;12.77;78.58
49461;BME280;35355;49.198;-0.368;2024-01-25T11:09:03;102307.22;;;12.85;78.67
49461;BME280;35355;49.198;-0.368;2024-01-25T11:11:30;102304.81;;;12.89;78.43
49461;BME280;35355;49.198;-0.368;2024-01-25T11:13:56;102305.44;;;12.91;78.59
49461;BME280;35355;49.198;-0.368;2024-01-25T11:16:29;102296.97;;;12.92;78.18
49461;BME280;35355;49.198;-0.368;2024-01-25T11:18:56;102290.66;;;12.92;78.54
49461;BME280;35355;49.198;-0.368;2024-01-25T11:24:05;102279.22;;;12.95;78.54
49461;BME280;35355;49.198;-0.368;2024-01-25T11:26:34;102280.88;;;12.96;78.23
49461;BME280;35355;49.198;-0.368;2024-01-25T11:28:59;102267.78;;;12.98;78.51
49461;BME280;35355;49.198;-0.368;2024-01-25T11:31:26;102261.19;;;12.99;78.48
49461;BME280;35355;49.198;-0.368;2024-01-25T11:33:56;102261.81;;;13.01;78.53
49461;BME280;35355;49.198;-0.368;2024-01-25T11:36:22;102269.06;;;13.07;78.55
49461;BME280;35355;49.198;-0.368;2024-01-25T11:38:48;102262.03;;;13.11;78.21
49461;BME280;35355;49.198;-0.368;2024-01-25T11:41:13;102261.53;;;13.14;78.47
49461;BME280;35355;49.198;-0.368;2024-01-25T11:43:40;102249.03;;;13.19;78.24
49461;BME280;35355;49.198;-0.368;2024-01-25T11:46:05;102259.25;;;13.23;78.06
49461;BME280;35355;49.198;-0.368;2024-01-25T11:48:30;102245.31;;;13.25;77.95
49461;BME280;35355;49.198;-0.368;2024-01-25T11:50:58;102240.91;;;13.24;78.00
49461;BME280;35355;49.198;-0.368;2024-01-25T11:53:23;102245.56;;;13.23;77.83
49461;BME280;35355;49.198;-0.368;2024-01-25T11:55:49;102256.28;;;13.25;77.85
49461;BME280;35355;49.198;-0.368;2024-01-25T11:58:15;102250.78;;;13.25;77.95
49461;BME280;35355;49.198;-0.368;2024-01-25T12:00:41;102247.00;;;13.26;77.91
49461;BME280;35355;49.198;-0.368;2024-01-25T12:03:07;102246.38;;;13.24;77.95
49461;BME280;35355;49.198;-0.368;2024-01-25T12:05:33;102236.38;;;13.18;77.48
49461;BME280;35355;49.198;-0.368;2024-01-25T12:07:59;102239.69;;;13.20;77.67
49461;BME280;35355;49.198;-0.368;2024-01-25T12:10:24;102233.66;;;13.18;77.45
49461;BME280;35355;49.198;-0.368;2024-01-25T12:12:51;102235.81;;;13.15;77.73
49461;BME280;35355;49.198;-0.368;2024-01-25T12:15:16;102230.56;;;13.14;77.61
49461;BME280;35355;49.198;-0.368;2024-01-25T12:17:42;102214.38;;;13.12;77.54
49461;BME280;35355;49.198;-0.368;2024-01-25T12:20:08;102215.44;;;13.11;77.66
49461;BME280;35355;49.198;-0.368;2024-01-25T12:22:37;102199.22;;;13.10;77.94
49461;BME280;35355;49.198;-0.368;2024-01-25T12:25:08;102192.88;;;13.09;77.93
49461;BME280;35355;49.198;-0.368;2024-01-25T12:27:39;102196.72;;;13.08;78.00
49461;BME280;35355;49.198;-0.368;2024-01-25T12:30:06;102189.56;;;13.07;77.97
49461;BME280;35355;49.198;-0.368;2024-01-25T12:32:33;102198.63;;;13.08;78.10
49461;BME280;35355;49.198;-0.368;2024-01-25T12:35:00;102194.22;;;13.07;78.02